Time;durP1;ratioP1;P1;durP2;ratioP2;P2;SDS_P1;SDS_P2;PMS_P1;PMS_P2;Temp;Humidity;BMP_temperature;BMP_pressure;BME280_temperature;BME280_humidity;BME280_pressure;Samples;Min_cycle;Max_cycle;Signal;HPM_P1;HPM_P2
2021/01/09 00:02:08;;;;;;;13.47;8.93;;;;;;;;;;5075228;28;20463;-76
2021/01/09 00:04:40;;;;;;;20.63;11.30;;;;;;;;;;5078245;28;20460;-75
2021/01/09 00:07:46;;;;;;;16.53;10.17;;;;;;;;;;5079782;28;20830;-76
2021/01/09 00:10:27;;;;;;;20.70;11.80;;;;;;;;;;5059142;28;20527;-75
2021/01/09 00:12:59;;;;;;;19.10;11.00;;;;;;;;;;5078350;28;20786;-75
2021/01/09 00:18:36;;;;;;;21.00;11.97;;;;;;;;;;5032771;28;20514;-74
2021/01/09 00:21:10;;;;;;;22.57;12.93;;;;;;;;;;5076526;28;20687;-76
2021/01/09 00:23:55;;;;;;;20.17;12.73;;;;;;;;;;5076929;28;20548;-76
2021/01/09 00:26:50;;;;;;;17.97;12.17;;;;;;;;;;5077852;28;20445;-75
2021/01/09 00:29:21;;;;;;;19.30;11.83;;;;;;;;;;5070337;28;20749;-75
2021/01/09 00:31:48;;;;;;;17.07;9.20;;;;;;;;;;5077351;28;20449;-75
2021/01/09 00:34:16;;;;;;;17.97;10.50;;;;;;;;;;5076886;28;20539;-74
2021/01/09 00:36:47;;;;;;;20.73;12.40;;;;;;;;;;5076193;28;20453;-75
2021/01/09 00:39:15;;;;;;;19.67;11.37;;;;;;;;;;5077392;28;20444;-75
2021/01/09 00:41:44;;;;;;;14.00;9.47;;;;;;;;;;5063446;28;20544;-75
2021/01/09 00:44:12;;;;;;;22.17;12.27;;;;;;;;;;5048726;28;20445;-75
2021/01/09 00:46:39;;;;;;;19.70;9.57;;;;;;;;;;5057520;28;20897;-75
2021/01/09 00:49:07;;;;;;;16.07;8.77;;;;;;;;;;5056346;28;20450;-75
2021/01/09 00:51:34;;;;;;;21.20;11.90;;;;;;;;;;5054411;28;20458;-76
2021/01/09 00:54:02;;;;;;;18.83;10.53;;;;;;;;;;5056332;28;20461;-75
2021/01/09 00:56:32;;;;;;;19.30;12.70;;;;;;;;;;5056303;28;20544;-75
2021/01/09 00:59:01;;;;;;;16.23;10.20;;;;;;;;;;5056157;28;20552;-76
2021/01/09 01:01:28;;;;;;;19.57;11.80;;;;;;;;;;5056434;28;20882;-75
2021/01/09 01:03:59;;;;;;;17.77;10.23;;;;;;;;;;5058026;28;20552;-75
2021/01/09 01:06:26;;;;;;;15.70;9.30;;;;;;;;;;5056491;28;20582;-76
2021/01/09 01:09:15;;;;;;;;;;;;;;;;;;;;;
2021/01/09 01:11:44;;;;;;;20.87;11.57;;;;;;;;;;5057045;28;20454;-75
2021/01/09 01:14:15;;;;;;;16.83;10.57;;;;;;;;;;5056425;28;20450;-75
2021/01/09 01:16:44;;;;;;;14.33;8.07;;;;;;;;;;5056039;28;20533;-75
2021/01/09 01:19:12;;;;;;;16.10;10.10;;;;;;;;;;5056447;28;20726;-75
2021/01/09 01:21:39;;;;;;;19.00;11.03;;;;;;;;;;5056465;28;20450;-75
2021/01/09 01:24:07;;;;;;;16.13;9.50;;;;;;;;;;5056113;28;20454;-75
2021/01/09 01:26:35;;;;;;;14.90;8.73;;;;;;;;;;5056716;28;20481;-78
2021/01/09 01:29:05;;;;;;;20.60;11.70;;;;;;;;;;5056145;28;20535;-75
2021/01/09 01:31:33;;;;;;;17.60;9.70;;;;;;;;;;5055725;28;20800;-75
2021/01/09 01:34:01;;;;;;;17.00;8.73;;;;;;;;;;5042932;28;20458;-75
2021/01/09 01:36:28;;;;;;;16.60;8.83;;;;;;;;;;5036490;28;20466;-74
2021/01/09 01:38:56;;;;;;;17.27;8.53;;;;;;;;;;5037071;28;20553;-74
2021/01/09 01:41:23;;;;;;;15.53;8.40;;;;;;;;;;5036123;28;20459;-75
2021/01/09 01:43:52;;;;;;;16.97;9.90;;;;;;;;;;5036275;28;20469;-76
2021/01/09 01:46:20;;;;;;;15.83;9.90;;;;;;;;;;5036181;28;20524;-75
2021/01/09 01:48:48;;;;;;;16.70;9.90;;;;;;;;;;5036142;28;20533;-75
2021/01/09 01:51:16;;;;;;;15.30;9.80;;;;;;;;;;5035416;28;20461;-75
2021/01/09 01:53:43;;;;;;;10.57;5.93;;;;;;;;;;5036657;28;20458;-75
2021/01/09 01:56:12;;;;;;;14.37;9.63;;;;;;;;;;5036693;28;20458;-75
2021/01/09 01:58:39;;;;;;;13.20;7.47;;;;;;;;;;5035579;28;20930;-75
2021/01/09 02:01:07;;;;;;;17.70;9.70;;;;;;;;;;5036879;28;20529;-75
2021/01/09 02:03:36;;;;;;;14.47;7.87;;;;;;;;;;5036419;28;20458;-75
2021/01/09 02:06:07;;;;;;;11.50;7.23;;;;;;;;;;5035946;28;20454;-75
2021/01/09 02:08:36;;;;;;;18.13;10.10;;;;;;;;;;5036076;28;20494;-75
2021/01/09 02:11:07;;;;;;;15.97;8.90;;;;;;;;;;5036462;28;20837;-75
2021/01/09 02:13:40;;;;;;;15.40;8.03;;;;;;;;;;5036772;28;20605;-75
2021/01/09 02:16:10;;;;;;;15.33;8.83;;;;;;;;;;5036801;28;20553;-74
2021/01/09 02:18:40;;;;;;;16.37;9.00;;;;;;;;;;5036333;28;20883;-75
2021/01/09 02:21:17;;;;;;;14.70;8.80;;;;;;;;;;5036493;28;20537;-75
2021/01/09 02:23:45;;;;;;;14.97;8.43;;;;;;;;;;5036604;28;20458;-75
2021/01/09 02:26:17;;;;;;;10.93;6.30;;;;;;;;;;5035561;28;20530;-75
2021/01/09 02:28:44;;;;;;;15.80;8.97;;;;;;;;;;5036217;28;20533;-75
2021/01/09 02:31:12;;;;;;;14.60;8.83;;;;;;;;;;5036089;28;20451;-75
2021/01/09 02:33:42;;;;;;;13.13;9.00;;;;;;;;;;5036079;28;20536;-75
2021/01/09 02:36:10;;;;;;;16.77;10.90;;;;;;;;;;5036518;28;20475;-75
2021/01/09 02:38:40;;;;;;;16.70;9.80;;;;;;;;;;5036386;28;20451;-74
2021/01/09 02:41:09;;;;;;;16.90;8.70;;;;;;;;;;5036573;28;20532;-75
2021/01/09 02:43:37;;;;;;;18.73;10.50;;;;;;;;;;5036098;28;20535;-75
2021/01/09 02:46:06;;;;;;;15.23;9.57;;;;;;;;;;5038489;28;20545;-75
2021/01/09 02:48:34;;;;;;;20.27;11.40;;;;;;;;;;5040161;28;20530;-75
2021/01/09 02:51:01;;;;;;;17.50;9.90;;;;;;;;;;5039984;28;20835;-75
2021/01/09 02:53:29;;;;;;;14.00;8.93;;;;;;;;;;5040233;28;20532;-75
2021/01/09 02:55:57;;;;;;;9.57;6.03;;;;;;;;;;5039883;28;20549;-75
2021/01/09 02:58:27;;;;;;;16.40;10.07;;;;;;;;;;5040011;28;20559;-75
2021/01/09 03:00:54;;;;;;;20.73;10.27;;;;;;;;;;5039533;28;20532;-75
2021/01/09 03:03:22;;;;;;;12.77;7.13;;;;;;;;;;5039193;28;20763;-75
2021/01/09 03:05:50;;;;;;;17.97;9.40;;;;;;;;;;5039515;28;20486;-75
2021/01/09 03:08:20;;;;;;;16.00;9.00;;;;;;;;;;5038690;28;20501;-75
2021/01/09 03:10:48;;;;;;;19.40;9.83;;;;;;;;;;5039579;28;20513;-75
2021/01/09 03:13:15;;;;;;;17.17;10.07;;;;;;;;;;5039478;28;20732;-75
2021/01/09 03:15:43;;;;;;;14.83;8.87;;;;;;;;;;5039164;28;20530;-75
2021/01/09 03:18:11;;;;;;;15.37;10.10;;;;;;;;;;5038972;28;20897;-75
2021/01/09 03:20:38;;;;;;;11.20;7.17;;;;;;;;;;5038982;28;20527;-75
2021/01/09 03:23:06;;;;;;;15.10;8.97;;;;;;;;;;5039079;28;20477;-75
2021/01/09 03:25:33;;;;;;;17.80;9.43;;;;;;;;;;5039126;28;20849;-75
2021/01/09 03:28:01;;;;;;;14.70;8.20;;;;;;;;;;5039265;28;20589;-75
2021/01/09 03:30:28;;;;;;;16.47;9.17;;;;;;;;;;5055593;28;20540;-75
2021/01/09 03:32:57;;;;;;;15.10;9.67;;;;;;;;;;5059375;28;20461;-75
2021/01/09 03:35:27;;;;;;;14.17;7.90;;;;;;;;;;5059093;28;20445;-75
2021/01/09 03:37:58;;;;;;;15.00;8.37;;;;;;;;;;5058554;28;20458;-75
2021/01/09 03:40:25;;;;;;;15.90;9.33;;;;;;;;;;5058411;28;20534;-75
2021/01/09 03:42:53;;;;;;;17.43;9.80;;;;;;;;;;5058389;28;20462;-75
2021/01/09 03:45:20;;;;;;;14.87;7.80;;;;;;;;;;5058451;28;20544;-74
2021/01/09 03:47:48;;;;;;;14.93;8.33;;;;;;;;;;5058136;28;20588;-74
2021/01/09 03:50:16;;;;;;;12.27;8.00;;;;;;;;;;5057734;28;20831;-74
2021/01/09 03:52:44;;;;;;;14.50;8.87;;;;;;;;;;5058178;28;20462;-74
2021/01/09 03:55:12;;;;;;;13.67;7.87;;;;;;;;;;5058573;28;20476;-74
2021/01/09 03:57:39;;;;;;;17.90;10.40;;;;;;;;;;5057474;28;20526;-74
2021/01/09 04:00:07;;;;;;;13.23;8.47;;;;;;;;;;5058874;28;20457;-74
2021/01/09 04:02:35;;;;;;;15.50;9.50;;;;;;;;;;5057880;28;20453;-75
2021/01/09 04:05:02;;;;;;;16.33;9.57;;;;;;;;;;5057987;28;20691;-74
2021/01/09 04:07:31;;;;;;;17.43;10.20;;;;;;;;;;5057849;28;20493;-74
2021/01/09 04:09:58;;;;;;;14.43;9.23;;;;;;;;;;5057529;28;20925;-74
2021/01/09 04:12:25;;;;;;;16.03;9.00;;;;;;;;;;5057923;28;20519;-74
2021/01/09 04:14:53;;;;;;;14.30;8.80;;;;;;;;;;5057547;28;20552;-74
2021/01/09 04:17:22;;;;;;;15.53;9.20;;;;;;;;;;5057841;28;20450;-74
2021/01/09 04:19:50;;;;;;;12.97;7.53;;;;;;;;;;5057075;28;20841;-74
2021/01/09 04:22:17;;;;;;;15.97;9.27;;;;;;;;;;5057898;28;20861;-74
2021/01/09 04:24:46;;;;;;;13.70;9.47;;;;;;;;;;5057797;28;20727;-74
2021/01/09 04:27:13;;;;;;;17.60;9.97;;;;;;;;;;5057323;28;20521;-74
2021/01/09 04:29:40;;;;;;;16.77;9.73;;;;;;;;;;5057169;28;20462;-74
2021/01/09 04:32:08;;;;;;;15.00;9.33;;;;;;;;;;5057392;28;20491;-74
2021/01/09 04:34:38;;;;;;;15.87;9.87;;;;;;;;;;5057656;28;20489;-74
2021/01/09 04:37:06;;;;;;;19.03;9.73;;;;;;;;;;5057522;28;20482;-74
2021/01/09 04:39:33;;;;;;;18.43;11.90;;;;;;;;;;5057369;28;20531;-74
2021/01/09 04:42:01;;;;;;;14.90;9.77;;;;;;;;;;5057251;28;20831;-74
2021/01/09 04:44:29;;;;;;;14.30;8.50;;;;;;;;;;5056547;28;20501;-74
2021/01/09 04:46:58;;;;;;;18.17;9.30;;;;;;;;;;5057880;28;20532;-74
2021/01/09 04:49:27;;;;;;;17.17;10.83;;;;;;;;;;5056889;28;20462;-74
2021/01/09 04:51:55;;;;;;;18.13;10.53;;;;;;;;;;5057674;28;20485;-74
2021/01/09 04:54:23;;;;;;;17.77;9.97;;;;;;;;;;5057195;28;20458;-74
2021/01/09 04:56:52;;;;;;;17.20;9.30;;;;;;;;;;5057534;28;20469;-74
2021/01/09 04:59:21;;;;;;;12.53;8.53;;;;;;;;;;5057472;28;20450;-74
2021/01/09 05:01:49;;;;;;;12.60;8.70;;;;;;;;;;5057397;28;20466;-74
2021/01/09 05:04:17;;;;;;;16.37;9.93;;;;;;;;;;5056934;28;20529;-74
2021/01/09 05:06:45;;;;;;;17.40;10.60;;;;;;;;;;5057194;28;20464;-74
2021/01/09 05:09:14;;;;;;;17.80;9.93;;;;;;;;;;5056123;28;20485;-73
2021/01/09 05:11:42;;;;;;;17.23;9.87;;;;;;;;;;5056933;28;20507;-74
2021/01/09 05:14:10;;;;;;;17.07;9.77;;;;;;;;;;5057466;28;20964;-74
2021/01/09 05:16:39;;;;;;;17.90;10.90;;;;;;;;;;5057171;28;20457;-74
2021/01/09 05:19:07;;;;;;;16.70;9.40;;;;;;;;;;5056980;28;20462;-74
2021/01/09 05:21:35;;;;;;;18.03;10.47;;;;;;;;;;5057266;28;20465;-74
2021/01/09 05:24:04;;;;;;;18.20;10.37;;;;;;;;;;5057276;28;20460;-74
2021/01/09 05:26:32;;;;;;;20.07;11.33;;;;;;;;;;5056975;28;20489;-74
2021/01/09 05:29:00;;;;;;;16.50;10.10;;;;;;;;;;5056852;28;20486;-74
2021/01/09 05:31:30;;;;;;;15.27;9.33;;;;;;;;;;5056855;28;20486;-73
2021/01/09 05:33:58;;;;;;;17.47;9.17;;;;;;;;;;5056075;28;20445;-74
2021/01/09 05:36:26;;;;;;;17.37;11.13;;;;;;;;;;5056589;28;20548;-74
2021/01/09 05:38:53;;;;;;;20.70;10.90;;;;;;;;;;5056987;28;20442;-74
2021/01/09 05:41:22;;;;;;;17.53;9.67;;;;;;;;;;5056848;28;20470;-74
2021/01/09 05:43:58;;;;;;;21.00;11.80;;;;;;;;;;5058125;28;20453;-74
2021/01/09 05:46:26;;;;;;;16.50;10.33;;;;;;;;;;5056638;28;20556;-74
2021/01/09 05:48:54;;;;;;;18.87;10.43;;;;;;;;;;5056133;28;20484;-74
2021/01/09 05:51:23;;;;;;;18.93;10.77;;;;;;;;;;5056439;28;20582;-74
2021/01/09 05:53:50;;;;;;;19.53;11.03;;;;;;;;;;5056141;28;20537;-74
2021/01/09 05:56:21;;;;;;;14.60;9.80;;;;;;;;;;5056559;28;20458;-74
2021/01/09 05:58:51;;;;;;;21.40;9.90;;;;;;;;;;5056696;28;20454;-74
2021/01/09 06:01:22;;;;;;;21.53;12.73;;;;;;;;;;5056262;28;20466;-74
2021/01/09 06:03:59;;;;;;;19.47;11.63;;;;;;;;;;5056715;28;20456;-74
2021/01/09 06:06:34;;;;;;;18.30;10.60;;;;;;;;;;5056452;28;20503;-74
2021/01/09 06:09:04;;;;;;;16.67;10.97;;;;;;;;;;5055750;28;20496;-74
2021/01/09 06:11:35;;;;;;;20.27;11.03;;;;;;;;;;5056606;28;20449;-74
2021/01/09 06:14:05;;;;;;;20.13;10.20;;;;;;;;;;5056612;28;20461;-74
2021/01/09 06:16:33;;;;;;;20.63;13.30;;;;;;;;;;5056151;28;20486;-74
2021/01/09 06:19:01;;;;;;;21.57;10.97;;;;;;;;;;5054479;28;20531;-74
2021/01/09 06:21:29;;;;;;;20.43;11.27;;;;;;;;;;5059892;28;20450;-74
2021/01/09 06:23:58;;;;;;;19.33;12.37;;;;;;;;;;5060268;28;20473;-74
2021/01/09 06:26:27;;;;;;;19.47;11.10;;;;;;;;;;5060342;28;20454;-74
2021/01/09 06:28:59;;;;;;;20.87;11.43;;;;;;;;;;5060182;28;20519;-74
2021/01/09 06:31:28;;;;;;;20.70;11.23;;;;;;;;;;5060416;28;20540;-74
2021/01/09 06:33:55;;;;;;;20.20;11.40;;;;;;;;;;5059675;28;20535;-74
2021/01/09 06:36:24;;;;;;;18.80;11.43;;;;;;;;;;5060471;28;20464;-74
2021/01/09 06:38:53;;;;;;;20.27;10.30;;;;;;;;;;5060223;28;20866;-74
2021/01/09 06:41:22;;;;;;;17.30;10.93;;;;;;;;;;5059852;28;20622;-74
2021/01/09 06:43:50;;;;;;;24.87;12.80;;;;;;;;;;5059722;28;20465;-74
2021/01/09 06:46:30;;;;;;;20.13;12.10;;;;;;;;;;5059870;28;20465;-74
2021/01/09 06:48:58;;;;;;;17.07;10.27;;;;;;;;;;5058864;28;20485;-73
2021/01/09 06:51:41;;;;;;;21.30;13.43;;;;;;;;;;5059412;28;20523;-73
2021/01/09 06:54:24;;;;;;;17.23;10.63;;;;;;;;;;5049170;28;20469;-73
2021/01/09 06:57:08;;;;;;;27.33;12.80;;;;;;;;;;5059694;28;20485;-73
2021/01/09 06:59:36;;;;;;;22.40;11.27;;;;;;;;;;5059338;28;20461;-74
2021/01/09 07:02:22;;;;;;;20.07;11.63;;;;;;;;;;5059062;28;20810;-74
2021/01/09 07:04:50;;;;;;;20.37;12.37;;;;;;;;;;5059524;28;21041;-73
2021/01/09 07:07:28;;;;;;;19.03;11.00;;;;;;;;;;5058108;28;20454;-73
2021/01/09 07:10:00;;;;;;;24.63;11.87;;;;;;;;;;5055961;28;20468;-73
2021/01/09 07:12:32;;;;;;;23.40;12.37;;;;;;;;;;5059386;28;20492;-73
2021/01/09 07:15:07;;;;;;;22.27;12.63;;;;;;;;;;5058989;28;20582;-73
2021/01/09 07:17:39;;;;;;;19.50;11.43;;;;;;;;;;5058512;28;20438;-74
2021/01/09 07:20:21;;;;;;;25.00;14.17;;;;;;;;;;5058787;28;20472;-73
2021/01/09 07:22:53;;;;;;;22.93;13.23;;;;;;;;;;5058544;28;20947;-74
2021/01/09 07:25:34;;;;;;;22.80;12.70;;;;;;;;;;5058718;28;20449;-73
2021/01/09 07:28:03;;;;;;;23.87;14.00;;;;;;;;;;5038879;28;20585;-73
2021/01/09 07:30:35;;;;;;;22.60;14.33;;;;;;;;;;5038566;28;20600;-74
2021/01/09 07:33:09;;;;;;;18.77;11.47;;;;;;;;;;5056883;28;20546;-73
2021/01/09 07:35:41;;;;;;;21.43;12.37;;;;;;;;;;5055151;28;20862;-73
2021/01/09 07:38:12;;;;;;;20.00;11.57;;;;;;;;;;5049602;28;20446;-73
2021/01/09 07:40:52;;;;;;;24.20;12.93;;;;;;;;;;5057763;28;20892;-73
2021/01/09 07:43:42;;;;;;;29.87;15.60;;;;;;;;;;5056850;28;20521;-73
2021/01/09 07:46:27;;;;;;;22.43;13.87;;;;;;;;;;5056858;28;20855;-73
2021/01/09 07:48:56;;;;;;;24.30;12.03;;;;;;;;;;5057139;28;20531;-73
2021/01/09 07:51:38;;;;;;;22.37;13.90;;;;;;;;;;5055170;28;20458;-73
2021/01/09 07:54:15;;;;;;;22.67;13.20;;;;;;;;;;5057779;28;20473;-73
2021/01/09 07:56:43;;;;;;;23.60;12.97;;;;;;;;;;5056901;28;20753;-73
2021/01/09 07:59:12;;;;;;;21.67;13.20;;;;;;;;;;5058049;28;20478;-73
2021/01/09 08:01:43;;;;;;;23.60;13.37;;;;;;;;;;5062765;28;20465;-73
2021/01/09 08:04:14;;;;;;;25.67;14.00;;;;;;;;;;5058409;28;20442;-74
2021/01/09 08:06:42;;;;;;;22.93;14.67;;;;;;;;;;5057784;28;20462;-73
2021/01/09 08:09:21;;;;;;;23.30;14.10;;;;;;;;;;5064514;28;20912;-74
2021/01/09 08:11:51;;;;;;;21.90;11.27;;;;;;;;;;5077055;28;20453;-73
2021/01/09 08:14:31;;;;;;;21.57;13.20;;;;;;;;;;5077939;28;20488;-73
2021/01/09 08:17:10;;;;;;;21.67;13.97;;;;;;;;;;5077216;28;20483;-73
2021/01/09 08:19:37;;;;;;;20.77;12.30;;;;;;;;;;5057717;28;20460;-73
2021/01/09 08:22:05;;;;;;;24.10;11.97;;;;;;;;;;5057199;28;20458;-73
2021/01/09 08:24:42;;;;;;;23.40;14.20;;;;;;;;;;5058014;28;20453;-73
2021/01/09 08:27:20;;;;;;;24.53;15.70;;;;;;;;;;5057248;28;20460;-73
2021/01/09 08:29:49;;;;;;;23.50;15.37;;;;;;;;;;5057547;28;20446;-73
2021/01/09 08:32:16;;;;;;;24.07;14.27;;;;;;;;;;5058155;28;20568;-74
2021/01/09 08:34:49;;;;;;;21.90;13.00;;;;;;;;;;5057271;28;20532;-73
2021/01/09 08:37:16;;;;;;;20.30;11.90;;;;;;;;;;5057485;28;20834;-73
2021/01/09 08:39:44;;;;;;;21.73;13.57;;;;;;;;;;5051774;28;20548;-73
2021/01/09 08:42:17;;;;;;;26.50;14.90;;;;;;;;;;5043645;28;20478;-73
2021/01/09 08:44:49;;;;;;;19.60;13.67;;;;;;;;;;5046767;28;20459;-73
2021/01/09 08:47:28;;;;;;;24.60;13.93;;;;;;;;;;5044761;28;20586;-74
2021/01/09 08:50:00;;;;;;;24.43;13.23;;;;;;;;;;5043134;28;20490;-73
2021/01/09 08:52:29;;;;;;;22.13;11.83;;;;;;;;;;5036252;28;20524;-73
2021/01/09 08:55:01;;;;;;;24.93;12.53;;;;;;;;;;5057083;28;20466;-73
2021/01/09 08:57:28;;;;;;;24.60;13.77;;;;;;;;;;5055798;28;20532;-73
2021/01/09 08:59:57;;;;;;;20.73;13.07;;;;;;;;;;5056514;28;20497;-73
2021/01/09 09:02:25;;;;;;;23.07;11.80;;;;;;;;;;5056022;28;20462;-74
2021/01/09 09:05:04;;;;;;;25.10;13.07;;;;;;;;;;5134100;27;20555;-73
2021/01/09 09:07:40;;;;;;;22.70;12.63;;;;;;;;;;5098522;28;20467;-73
2021/01/09 09:10:09;;;;;;;21.60;11.90;;;;;;;;;;5092764;28;20931;-73
2021/01/09 09:12:36;;;;;;;23.30;13.70;;;;;;;;;;5099038;28;20508;-72
2021/01/09 09:15:06;;;;;;;25.23;14.50;;;;;;;;;;5113904;28;20567;-73
2021/01/09 09:17:34;;;;;;;21.67;13.87;;;;;;;;;;5113755;28;20474;-72
2021/01/09 09:20:08;;;;;;;29.40;14.40;;;;;;;;;;5112735;28;20523;-74
2021/01/09 09:22:35;;;;;;;23.17;14.30;;;;;;;;;;5125804;28;20446;-74
2021/01/09 09:25:03;;;;;;;19.83;10.80;;;;;;;;;;5107618;27;20452;-72
2021/01/09 09:27:33;;;;;;;23.93;12.10;;;;;;;;;;5097578;28;20720;-74
2021/01/09 09:30:05;;;;;;;26.83;14.73;;;;;;;;;;5113515;28;20515;-72
2021/01/09 09:32:36;;;;;;;27.87;16.47;;;;;;;;;;5112950;28;20512;-74
2021/01/09 09:35:27;;;;;;;25.67;14.40;;;;;;;;;;5099542;28;20488;-73
2021/01/09 09:37:55;;;;;;;21.57;13.40;;;;;;;;;;5093267;28;20452;-73
2021/01/09 09:40:24;;;;;;;24.83;14.30;;;;;;;;;;5102699;28;20515;-74
2021/01/09 09:42:51;;;;;;;20.17;11.47;;;;;;;;;;5112705;28;20455;-74
2021/01/09 09:45:20;;;;;;;20.20;10.67;;;;;;;;;;5113481;28;21007;-73
2021/01/09 09:47:48;;;;;;;24.03;13.23;;;;;;;;;;5113246;28;20515;-74
2021/01/09 09:50:19;;;;;;;20.60;14.30;;;;;;;;;;5112358;28;20458;-73
2021/01/09 09:53:05;;;;;;;21.30;12.80;;;;;;;;;;5112576;28;20454;-73
2021/01/09 09:55:32;;;;;;;22.07;13.10;;;;;;;;;;5112745;28;20443;-73
2021/01/09 09:58:08;;;;;;;20.73;12.33;;;;;;;;;;5112108;28;20567;-73
2021/01/09 10:00:50;;;;;;;27.17;15.30;;;;;;;;;;5111646;28;20451;-73
2021/01/09 10:03:18;;;;;;;22.00;12.43;;;;;;;;;;5111731;28;20486;-73
2021/01/09 10:06:02;;;;;;;19.77;13.47;;;;;;;;;;5112274;28;20527;-73
2021/01/09 10:08:32;;;;;;;22.10;12.57;;;;;;;;;;5111855;28;20459;-73
2021/01/09 10:11:03;;;;;;;25.63;14.00;;;;;;;;;;5112812;28;20847;-72
2021/01/09 10:13:34;;;;;;;24.80;14.00;;;;;;;;;;5112524;28;20879;-74
2021/01/09 10:16:03;;;;;;;25.60;13.97;;;;;;;;;;5100513;28;20454;-73
2021/01/09 10:18:31;;;;;;;21.77;13.23;;;;;;;;;;5098530;28;20462;-73
2021/01/09 10:20:59;;;;;;;23.47;12.57;;;;;;;;;;5098949;28;20448;-73
2021/01/09 10:23:28;;;;;;;25.03;14.03;;;;;;;;;;5097729;28;20483;-73
2021/01/09 10:25:56;;;;;;;22.83;13.20;;;;;;;;;;5097667;28;20455;-73
2021/01/09 10:28:24;;;;;;;22.33;12.57;;;;;;;;;;5098835;28;20898;-73
2021/01/09 10:30:51;;;;;;;22.37;13.37;;;;;;;;;;5098656;28;20452;-73
2021/01/09 10:33:19;;;;;;;23.67;12.90;;;;;;;;;;5094172;28;20465;-73
2021/01/09 10:35:49;;;;;;;21.67;12.00;;;;;;;;;;5078103;28;20495;-73
2021/01/09 10:38:17;;;;;;;18.40;9.50;;;;;;;;;;5076773;28;20735;-74
2021/01/09 10:40:45;;;;;;;22.00;12.27;;;;;;;;;;5078227;28;20736;-74
2021/01/09 10:43:13;;;;;;;24.00;13.87;;;;;;;;;;5078813;28;20558;-73
2021/01/09 10:45:41;;;;;;;22.90;11.93;;;;;;;;;;5081381;28;20858;-74
2021/01/09 10:48:11;;;;;;;24.70;13.10;;;;;;;;;;5098423;28;20721;-74
2021/01/09 10:50:38;;;;;;;26.90;13.80;;;;;;;;;;5098012;28;20849;-73
2021/01/09 10:53:06;;;;;;;23.57;11.90;;;;;;;;;;5097761;28;20547;-73
2021/01/09 10:55:44;;;;;;;20.40;11.40;;;;;;;;;;5096096;28;20531;-73
2021/01/09 10:58:12;;;;;;;19.57;10.87;;;;;;;;;;5096958;28;20455;-73
2021/01/09 11:00:43;;;;;;;21.30;12.97;;;;;;;;;;5097972;28;20532;-73
2021/01/09 11:03:13;;;;;;;20.20;12.67;;;;;;;;;;5097059;28;20761;-73
2021/01/09 11:05:44;;;;;;;22.53;12.17;;;;;;;;;;5089309;28;20481;-73
2021/01/09 11:08:13;;;;;;;22.27;10.80;;;;;;;;;;5097037;28;20508;-72
2021/01/09 11:10:40;;;;;;;21.73;13.20;;;;;;;;;;5082422;28;20487;-72
2021/01/09 11:13:08;;;;;;;15.33;9.27;;;;;;;;;;5106185;28;20515;-72
2021/01/09 11:15:36;;;;;;;21.63;12.03;;;;;;;;;;5097064;28;20581;-73
2021/01/09 11:18:04;;;;;;;16.20;8.47;;;;;;;;;;5093725;28;20798;-74
2021/01/09 11:20:32;;;;;;;19.27;10.10;;;;;;;;;;5097329;28;20460;-73
2021/01/09 11:23:00;;;;;;;19.20;9.77;;;;;;;;;;5097228;28;20783;-73
2021/01/09 11:25:27;;;;;;;20.87;11.23;;;;;;;;;;5103908;28;20930;-73
2021/01/09 11:28:09;;;;;;;17.77;10.20;;;;;;;;;;5100376;28;20454;-73
2021/01/09 11:30:37;;;;;;;21.50;12.50;;;;;;;;;;5096010;28;20448;-73
2021/01/09 11:33:07;;;;;;;22.27;12.33;;;;;;;;;;5097569;28;20689;-73
2021/01/09 11:35:37;;;;;;;27.03;11.47;;;;;;;;;;5097690;28;20464;-73
2021/01/09 11:38:09;;;;;;;22.83;13.17;;;;;;;;;;5097479;28;20516;-73
2021/01/09 11:40:36;;;;;;;18.63;11.77;;;;;;;;;;5093020;28;20454;-73
2021/01/09 11:43:04;;;;;;;23.77;12.57;;;;;;;;;;5112922;28;20759;-73
2021/01/09 11:45:39;;;;;;;21.97;11.50;;;;;;;;;;5092752;28;20495;-73
2021/01/09 11:48:19;;;;;;;21.40;12.70;;;;;;;;;;5110115;28;20435;-73
2021/01/09 11:50:50;;;;;;;26.37;12.13;;;;;;;;;;5107695;28;20459;-73
2021/01/09 11:53:23;;;;;;;22.40;11.73;;;;;;;;;;5096915;28;20479;-73
2021/01/09 11:55:52;;;;;;;24.23;13.50;;;;;;;;;;5092894;28;20464;-73
2021/01/09 11:58:20;;;;;;;28.37;12.90;;;;;;;;;;5095772;28;20452;-73
2021/01/09 12:00:47;;;;;;;23.97;13.73;;;;;;;;;;5097622;28;20576;-73
2021/01/09 12:03:16;;;;;;;24.43;12.43;;;;;;;;;;5097048;28;20517;-72
2021/01/09 12:05:46;;;;;;;26.00;13.40;;;;;;;;;;5096761;28;20891;-73
2021/01/09 12:08:14;;;;;;;22.73;12.90;;;;;;;;;;5099739;28;20972;-73
2021/01/09 12:10:56;;;;;;;23.63;12.13;;;;;;;;;;5079024;28;20492;-73
2021/01/09 12:13:24;;;;;;;23.63;13.50;;;;;;;;;;5082297;28;20461;-72
2021/01/09 12:15:57;;;;;;;24.60;13.37;;;;;;;;;;5088577;28;20491;-72
2021/01/09 12:18:33;;;;;;;26.27;13.97;;;;;;;;;;5083787;28;20461;-73
2021/01/09 12:21:03;;;;;;;25.60;13.83;;;;;;;;;;5075387;28;20456;-72
2021/01/09 12:23:30;;;;;;;19.20;12.37;;;;;;;;;;5075722;28;20754;-72
2021/01/09 12:26:01;;;;;;;28.67;14.13;;;;;;;;;;5080891;28;20440;-73
2021/01/09 12:28:33;;;;;;;27.37;13.50;;;;;;;;;;5086240;28;20464;-73
2021/01/09 12:31:00;;;;;;;22.83;11.93;;;;;;;;;;5085403;28;20455;-73
2021/01/09 12:33:32;;;;;;;22.07;12.50;;;;;;;;;;5093553;28;20475;-72
2021/01/09 12:36:02;;;;;;;30.37;15.40;;;;;;;;;;5090818;28;20448;-73
2021/01/09 12:38:35;;;;;;;26.93;14.70;;;;;;;;;;5075827;28;20521;-73
2021/01/09 12:41:04;;;;;;;32.70;17.03;;;;;;;;;;5077205;28;20457;-73
2021/01/09 12:43:31;;;;;;;25.60;12.53;;;;;;;;;;5109270;28;20479;-73
2021/01/09 12:45:59;;;;;;;23.80;13.23;;;;;;;;;;5091199;28;20797;-72
2021/01/09 12:48:27;;;;;;;25.27;13.40;;;;;;;;;;5075612;28;20841;-72
2021/01/09 12:50:56;;;;;;;22.27;13.07;;;;;;;;;;5075754;28;20499;-72
2021/01/09 12:53:24;;;;;;;28.97;15.10;;;;;;;;;;5074974;28;20467;-72
2021/01/09 12:56:03;;;;;;;25.23;14.83;;;;;;;;;;5099367;28;20491;-73
2021/01/09 12:58:32;;;;;;;24.87;11.00;;;;;;;;;;5084923;28;20456;-73
2021/01/09 13:01:05;;;;;;;31.43;17.70;;;;;;;;;;5100306;28;20459;-72
2021/01/09 13:03:34;;;;;;;26.47;13.87;;;;;;;;;;5116189;28;20479;-72
2021/01/09 13:06:15;;;;;;;29.77;15.00;;;;;;;;;;5097771;28;20522;-73
2021/01/09 13:08:51;;;;;;;24.83;13.10;;;;;;;;;;5092875;28;20559;-73
2021/01/09 13:11:27;;;;;;;30.93;15.73;;;;;;;;;;5074889;28;20463;-73
2021/01/09 13:13:54;;;;;;;35.80;15.80;;;;;;;;;;5074470;28;20491;-74
2021/01/09 13:16:24;;;;;;;26.40;13.93;;;;;;;;;;5075903;28;20525;-74
2021/01/09 13:19:01;;;;;;;25.00;14.00;;;;;;;;;;5095367;28;20472;-73
2021/01/09 13:21:31;;;;;;;22.40;11.97;;;;;;;;;;5095803;28;20456;-74
2021/01/09 13:24:07;;;;;;;30.13;15.27;;;;;;;;;;5090606;28;20488;-74
2021/01/09 13:26:44;;;;;;;34.73;15.40;;;;;;;;;;5075155;28;20437;-74
2021/01/09 13:29:18;;;;;;;22.93;12.97;;;;;;;;;;5091479;28;20508;-73
2021/01/09 13:31:48;;;;;;;27.63;16.40;;;;;;;;;;5108651;28;20478;-73
2021/01/09 13:34:16;;;;;;;30.07;15.80;;;;;;;;;;5116173;28;20444;-73
2021/01/09 13:36:48;;;;;;;22.83;12.67;;;;;;;;;;5103588;28;20488;-72
2021/01/09 13:39:26;;;;;;;27.83;15.70;;;;;;;;;;5088921;28;20461;-74
2021/01/09 13:41:56;;;;;;;30.43;14.07;;;;;;;;;;5074614;28;20567;-74
2021/01/09 13:44:25;;;;;;;27.10;15.07;;;;;;;;;;5074314;28;20476;-73
2021/01/09 13:46:59;;;;;;;29.07;16.07;;;;;;;;;;5092261;28;20448;-73
2021/01/09 13:49:28;;;;;;;30.60;14.33;;;;;;;;;;5095572;28;20517;-73
2021/01/09 13:51:57;;;;;;;25.10;14.30;;;;;;;;;;5099041;28;20466;-73
2021/01/09 13:54:24;;;;;;;28.53;14.00;;;;;;;;;;5097208;28;20456;-74
2021/01/09 13:56:52;;;;;;;23.47;12.90;;;;;;;;;;5097095;28;20459;-73
2021/01/09 13:59:33;;;;;;;24.50;13.17;;;;;;;;;;5093933;28;20488;-73
2021/01/09 14:02:07;;;;;;;23.00;12.97;;;;;;;;;;5105450;28;20569;-73
2021/01/09 14:04:48;;;;;;;37.23;17.40;;;;;;;;;;5098570;28;20527;-72
2021/01/09 14:07:16;;;;;;;32.47;15.67;;;;;;;;;;5098154;28;20448;-73
2021/01/09 14:09:46;;;;;;;24.63;14.97;;;;;;;;;;5087601;28;20480;-71
2021/01/09 14:12:14;;;;;;;32.60;16.47;;;;;;;;;;5077014;28;20481;-73
2021/01/09 14:14:42;;;;;;;29.50;14.90;;;;;;;;;;5079164;28;20461;-73
2021/01/09 14:17:22;;;;;;;32.53;16.93;;;;;;;;;;5096206;28;20903;-73
2021/01/09 14:20:15;;;;;;;32.27;15.50;;;;;;;;;;5108754;28;20459;-73
2021/01/09 14:23:01;;;;;;;31.13;13.53;;;;;;;;;;5114989;28;20458;-73
2021/01/09 14:25:39;;;;;;;27.40;15.90;;;;;;;;;;5095294;28;20478;-73
2021/01/09 14:28:35;;;;;;;25.30;15.87;;;;;;;;;;5096044;28;20702;-73
2021/01/09 14:31:27;;;;;;;32.47;15.83;;;;;;;;;;5096861;28;20458;-73
2021/01/09 14:34:12;;;;;;;;;;;;;;;;;;;;;
2021/01/09 14:39:39;;;;;;;26.87;16.67;;;;;;;;;;5093100;28;20904;-73
2021/01/09 14:42:15;;;;;;;25.97;14.27;;;;;;;;;;5097377;28;20448;-73
2021/01/09 14:44:49;;;;;;;29.63;15.10;;;;;;;;;;5097793;28;20487;-73
2021/01/09 14:47:36;;;;;;;33.90;16.80;;;;;;;;;;5095494;28;20467;-73
2021/01/09 14:50:18;;;;;;;25.87;13.07;;;;;;;;;;5093445;28;20570;-73
2021/01/09 14:52:52;;;;;;;28.27;15.50;;;;;;;;;;5084111;28;20747;-73